Time;durP1;ratioP1;P1;durP2;ratioP2;P2;SDS_P1;SDS_P2;PMS_P1;PMS_P2;Temp;Humidity;BMP_temperature;BMP_pressure;BME280_temperature;BME280_humidity;BME280_pressure;Samples;Min_cycle;Max_cycle;Signal;HPM_P1;HPM_P2
2022/05/11 00:01:43;;;;;;;7.43;5.80;;;19.80;78.90;;;;;;4927210;29;20225;-60
2022/05/11 00:04:10;;;;;;;7.30;5.90;;;19.70;82.20;;;;;;4924612;29;20217;-60
2022/05/11 00:06:37;;;;;;;6.80;6.30;;;19.50;85.10;;;;;;4928724;29;20269;-60
2022/05/11 00:09:04;;;;;;;7.37;6.73;;;19.50;87.80;;;;;;4931707;29;20198;-69
2022/05/11 00:11:29;;;;;;;7.77;6.97;;;19.40;90.10;;;;;;4933517;29;20191;-70
2022/05/11 00:13:56;;;;;;;8.03;7.33;;;19.30;91.40;;;;;;4931894;29;20906;-62
2022/05/11 00:16:23;;;;;;;9.67;6.67;;;19.10;93.00;;;;;;4933110;29;20202;-61
2022/05/11 00:18:49;;;;;;;8.47;6.90;;;19.10;94.40;;;;;;4919999;29;20720;-61
2022/05/11 00:21:15;;;;;;;7.73;7.03;;;19.00;95.60;;;;;;4933740;29;20190;-62
2022/05/11 00:23:40;;;;;;;7.03;6.47;;;18.80;97.00;;;;;;4927204;29;20233;-62
2022/05/11 00:26:06;;;;;;;8.80;6.57;;;18.80;97.90;;;;;;4933488;29;20679;-63
2022/05/11 00:28:31;;;;;;;6.97;6.37;;;18.80;98.60;;;;;;4931620;29;20740;-62
2022/05/11 00:30:57;;;;;;;7.10;6.40;;;18.80;99.20;;;;;;4933687;29;20189;-63
2022/05/11 00:33:23;;;;;;;7.27;6.57;;;18.90;99.20;;;;;;4933100;29;20198;-61
2022/05/11 00:35:50;;;;;;;6.90;6.23;;;18.90;99.30;;;;;;4931233;29;20255;-62
2022/05/11 00:38:19;;;;;;;7.87;6.53;;;18.90;99.70;;;;;;4933316;29;20205;-63
2022/05/11 00:40:48;;;;;;;7.10;6.40;;;18.70;99.90;;;;;;4931431;29;20212;-63
2022/05/11 00:43:24;;;;;;;7.93;6.47;;;18.80;99.90;;;;;;4933149;29;20229;-63
2022/05/11 00:45:50;;;;;;;6.63;6.03;;;18.80;99.90;;;;;;4931320;29;20209;-63
2022/05/11 00:51:10;;;;;;;9.30;6.30;;;18.70;99.90;;;;;;4920388;29;20242;-63
2022/05/11 00:53:40;;;;;;;7.03;6.40;;;18.50;99.90;;;;;;4931501;29;20186;-62
2022/05/11 00:56:05;;;;;;;7.07;6.47;;;18.50;99.90;;;;;;4933080;29;20731;-62
2022/05/11 00:58:37;;;;;;;6.43;5.63;;;18.40;99.90;;;;;;4931457;29;20276;-62
2022/05/11 01:01:03;;;;;;;6.60;5.97;;;18.40;99.90;;;;;;4933242;29;20245;-62
2022/05/11 01:03:38;;;;;;;5.77;5.23;;;18.40;99.90;;;;;;4931114;29;20715;-63
2022/05/11 01:06:06;;;;;;;7.10;6.40;;;18.50;99.90;;;;;;4933211;29;21109;-62
2022/05/11 01:08:33;;;;;;;9.17;6.53;;;18.40;99.90;;;;;;4931155;29;20381;-62
2022/05/11 01:11:01;;;;;;;8.10;6.17;;;18.30;99.90;;;;;;4933474;29;20197;-63
2022/05/11 01:13:28;;;;;;;7.20;6.50;;;18.30;99.90;;;;;;4931397;29;20206;-62
2022/05/11 01:15:53;;;;;;;6.63;6.03;;;18.20;99.90;;;;;;4933461;29;20289;-62
2022/05/11 01:18:20;;;;;;;8.37;7.00;;;18.30;99.90;;;;;;4930553;29;20286;-61
2022/05/11 01:20:46;;;;;;;6.77;6.20;;;18.30;99.90;;;;;;4928112;29;20675;-62
2022/05/11 01:23:27;;;;;;;6.40;5.57;;;18.30;99.90;;;;;;4929674;29;20233;-62
2022/05/11 01:25:54;;;;;;;5.67;5.07;;;18.30;99.90;;;;;;4928484;29;20266;-62
2022/05/11 01:28:20;;;;;;;6.00;5.40;;;18.40;99.90;;;;;;4929808;29;20610;-62
2022/05/11 01:30:48;;;;;;;6.03;5.50;;;18.40;99.90;;;;;;4927947;29;20217;-63
2022/05/11 01:33:22;;;;;;;7.13;5.60;;;18.40;99.90;;;;;;4929996;29;20736;-63
2022/05/11 01:36:15;;;;;;;7.90;5.13;;;18.40;99.90;;;;;;4927698;29;20234;-63
2022/05/11 01:38:42;;;;;;;5.60;5.20;;;18.30;99.90;;;;;;4927227;29;20200;-62
2022/05/11 01:41:11;;;;;;;6.93;5.90;;;18.30;99.90;;;;;;4930044;29;20197;-64
2022/05/11 01:43:38;;;;;;;6.27;5.67;;;18.30;99.90;;;;;;4927639;29;20576;-63
2022/05/11 01:46:05;;;;;;;8.50;5.97;;;18.30;99.90;;;;;;4929205;29;20190;-62
2022/05/11 01:48:30;;;;;;;9.30;6.80;;;18.30;99.90;;;;;;4927397;29;20552;-63
2022/05/11 01:50:56;;;;;;;6.87;6.07;;;18.30;99.90;;;;;;4929471;29;20943;-71
2022/05/11 01:53:22;;;;;;;7.37;6.67;;;18.30;99.90;;;;;;4929377;29;20721;-63
2022/05/11 01:55:48;;;;;;;7.70;6.50;;;18.30;99.90;;;;;;4927055;29;20253;-63
2022/05/11 01:58:15;;;;;;;6.30;5.80;;;18.20;99.90;;;;;;4929316;29;20210;-62
2022/05/11 02:00:42;;;;;;;6.67;6.07;;;18.30;99.90;;;;;;4927383;29;20705;-62
2022/05/11 02:03:08;;;;;;;7.00;6.30;;;18.30;99.90;;;;;;4929758;29;20271;-62
2022/05/11 02:08:18;;;;;;;7.80;6.37;;;18.20;99.90;;;;;;4929478;29;20698;-64
2022/05/11 02:10:43;;;;;;;7.43;5.40;;;18.20;99.90;;;;;;4927093;29;20685;-63
2022/05/11 02:13:09;;;;;;;6.43;5.93;;;18.30;99.90;;;;;;4929098;29;20673;-63
2022/05/11 02:15:38;;;;;;;6.37;5.77;;;18.30;99.90;;;;;;4927234;29;20214;-63
2022/05/11 02:18:05;;;;;;;6.63;5.90;;;18.30;99.90;;;;;;4928490;29;20677;-62
2022/05/11 02:20:31;;;;;;;6.00;5.57;;;18.20;99.90;;;;;;4926926;29;20211;-62
2022/05/11 02:22:57;;;;;;;5.03;4.53;;;18.20;99.90;;;;;;4928662;29;20222;-62
2022/05/11 02:25:23;;;;;;;6.40;5.80;;;18.30;99.90;;;;;;4923737;29;20224;-62
2022/05/11 02:27:50;;;;;;;5.47;5.07;;;18.30;99.90;;;;;;4928678;29;20218;-62
2022/05/11 02:30:28;;;;;;;5.83;5.20;;;18.30;99.90;;;;;;4926567;29;20224;-61
2022/05/11 02:32:54;;;;;;;7.00;5.53;;;18.30;99.90;;;;;;4922946;29;20689;-62
2022/05/11 02:35:21;;;;;;;6.87;6.20;;;18.30;99.90;;;;;;4929659;28;20225;-62
2022/05/11 02:37:51;;;;;;;5.90;5.40;;;18.30;99.90;;;;;;4926151;29;20202;-62
2022/05/11 02:40:22;;;;;;;6.83;6.23;;;18.20;99.90;;;;;;4928607;29;20198;-62
2022/05/11 02:42:47;;;;;;;6.40;5.83;;;18.10;99.90;;;;;;4916512;29;20749;-62
2022/05/11 02:45:14;;;;;;;8.13;5.93;;;18.20;99.90;;;;;;4928729;29;20198;-62
2022/05/11 02:47:40;;;;;;;6.80;6.20;;;18.30;99.90;;;;;;4926638;29;20687;-62
2022/05/11 02:50:07;;;;;;;6.57;5.63;;;18.30;99.90;;;;;;4928431;29;20201;-62
2022/05/11 02:52:34;;;;;;;7.10;5.97;;;18.20;99.90;;;;;;4926463;29;20210;-62
2022/05/11 02:55:00;;;;;;;6.90;6.30;;;18.10;99.90;;;;;;4928224;29;20205;-61
2022/05/11 02:57:25;;;;;;;6.20;5.60;;;18.10;99.90;;;;;;4916878;29;20612;-62
2022/05/11 02:59:51;;;;;;;8.37;6.13;;;18.10;99.90;;;;;;4928204;29;20212;-63
2022/05/11 03:02:18;;;;;;;6.87;5.70;;;18.10;99.90;;;;;;4923597;29;20209;-63
2022/05/11 03:04:44;;;;;;;7.17;6.57;;;18.00;99.90;;;;;;4928655;29;20269;-63
2022/05/11 03:07:09;;;;;;;7.90;7.10;;;18.00;99.90;;;;;;4926294;29;20205;-62
2022/05/11 03:09:35;;;;;;;7.20;6.60;;;18.10;99.90;;;;;;4928519;29;20194;-62
2022/05/11 03:12:01;;;;;;;9.83;7.60;;;18.10;99.90;;;;;;4926201;29;20967;-63
2022/05/11 03:14:26;;;;;;;6.47;5.90;;;18.10;99.90;;;;;;4928440;29;20513;-63
2022/05/11 03:16:52;;;;;;;7.53;6.83;;;18.10;99.90;;;;;;4926007;29;20960;-62
2022/05/11 03:19:17;;;;;;;10.80;6.97;;;18.10;99.90;;;;;;4928326;29;20345;-64
2022/05/11 03:21:43;;;;;;;7.27;6.63;;;18.10;99.90;;;;;;4925650;29;20652;-64
2022/05/11 03:24:08;;;;;;;7.90;7.20;;;18.00;99.90;;;;;;4928134;29;20210;-63
2022/05/11 03:26:35;;;;;;;9.20;7.83;;;18.00;99.90;;;;;;4926666;29;20647;-63
2022/05/11 03:29:06;;;;;;;7.70;6.70;;;18.10;99.90;;;;;;4926395;29;20270;-63
2022/05/11 03:31:33;;;;;;;8.10;6.50;;;18.30;99.90;;;;;;4927017;29;20245;-62
2022/05/11 03:36:43;;;;;;;8.87;7.00;;;18.10;99.90;;;;;;4922185;29;20287;-62
2022/05/11 03:39:10;;;;;;;7.37;6.67;;;18.20;99.90;;;;;;4928073;29;20196;-62
2022/05/11 03:41:36;;;;;;;8.63;6.70;;;18.20;99.90;;;;;;4927126;29;20189;-62
2022/05/11 03:44:02;;;;;;;8.33;7.10;;;18.10;99.90;;;;;;4925968;29;20700;-61
2022/05/11 03:46:27;;;;;;;8.30;7.50;;;18.00;99.90;;;;;;4927973;29;20299;-62
2022/05/11 03:48:52;;;;;;;8.57;7.57;;;18.00;99.90;;;;;;4926041;29;20204;-62
2022/05/11 03:51:18;;;;;;;9.30;7.77;;;18.10;99.90;;;;;;4927733;29;20654;-61
2022/05/11 03:53:44;;;;;;;8.00;7.20;;;18.20;99.90;;;;;;4923503;29;20244;-62
2022/05/11 03:56:12;;;;;;;20.97;8.57;;;18.10;99.90;;;;;;4927943;29;20202;-62
2022/05/11 03:58:38;;;;;;;9.53;8.17;;;18.00;99.90;;;;;;4926251;29;20265;-62
2022/05/11 04:01:03;;;;;;;8.90;8.10;;;18.10;99.90;;;;;;4927912;29;20221;-62
2022/05/11 04:03:29;;;;;;;9.90;8.90;;;18.20;99.90;;;;;;4925801;29;20391;-60
2022/05/11 04:05:54;;;;;;;12.20;10.50;;;18.10;99.90;;;;;;4927499;29;20204;-62
2022/05/11 04:08:20;;;;;;;9.83;8.93;;;18.10;99.90;;;;;;4923644;29;20635;-62
2022/05/11 04:10:45;;;;;;;8.83;8.13;;;18.00;99.90;;;;;;4927308;29;20189;-62
2022/05/11 04:13:11;;;;;;;8.30;7.60;;;18.10;99.90;;;;;;4919195;29;20595;-62
2022/05/11 04:15:36;;;;;;;9.90;8.13;;;17.90;99.90;;;;;;4927491;29;20202;-62
2022/05/11 04:18:02;;;;;;;9.33;7.90;;;18.00;99.90;;;;;;4924262;29;20445;-62
2022/05/11 04:20:28;;;;;;;8.90;8.03;;;18.00;99.90;;;;;;4927315;29;20234;-62
2022/05/11 04:22:55;;;;;;;10.80;9.67;;;17.90;99.90;;;;;;4925424;29;20318;-63
2022/05/11 04:25:20;;;;;;;11.70;8.70;;;17.80;99.90;;;;;;4927927;29;20336;-62
2022/05/11 04:27:48;;;;;;;9.73;8.37;;;17.70;99.90;;;;;;4915133;29;20213;-63
2022/05/11 04:30:15;;;;;;;9.83;9.03;;;17.70;99.90;;;;;;4927230;29;20233;-62
2022/05/11 04:32:41;;;;;;;9.40;8.60;;;17.70;99.90;;;;;;4923545;29;21086;-62
2022/05/11 04:35:08;;;;;;;9.97;8.97;;;17.70;99.90;;;;;;4925771;29;20446;-62
2022/05/11 04:37:33;;;;;;;9.47;8.50;;;17.70;99.90;;;;;;4925956;29;20483;-64
2022/05/11 04:39:59;;;;;;;11.27;8.87;;;17.80;99.90;;;;;;4924127;29;20218;-62
2022/05/11 04:42:25;;;;;;;9.67;8.77;;;17.80;99.90;;;;;;4925764;29;20218;-64
2022/05/11 04:44:53;;;;;;;9.50;8.60;;;17.80;99.90;;;;;;4922380;29;20715;-63
2022/05/11 04:47:19;;;;;;;9.93;9.03;;;17.80;99.90;;;;;;4922445;29;20285;-63
2022/05/11 04:49:44;;;;;;;10.53;9.53;;;17.80;99.90;;;;;;4926006;29;20301;-63
2022/05/11 04:52:14;;;;;;;10.40;9.37;;;17.90;99.90;;;;;;4923520;29;20199;-63
2022/05/11 04:54:45;;;;;;;9.53;8.73;;;17.90;99.90;;;;;;4926161;29;20768;-63
2022/05/11 04:57:11;;;;;;;11.33;10.10;;;17.90;99.90;;;;;;4920807;29;20269;-62
2022/05/11 04:59:40;;;;;;;10.87;9.50;;;17.90;99.90;;;;;;4931017;29;20189;-62
2022/05/11 05:02:12;;;;;;;10.87;9.77;;;17.80;99.90;;;;;;4928481;29;20201;-62
2022/05/11 05:04:37;;;;;;;11.23;9.90;;;17.80;99.90;;;;;;4930711;29;20205;-63
2022/05/11 05:07:03;;;;;;;11.23;10.13;;;17.70;99.90;;;;;;4928812;29;20569;-62
2022/05/11 05:09:29;;;;;;;11.53;10.43;;;17.70;99.90;;;;;;4930751;29;20194;-62
2022/05/11 05:11:55;;;;;;;11.23;10.10;;;17.70;99.90;;;;;;4912623;29;20298;-62
2022/05/11 05:14:21;;;;;;;12.17;10.37;;;17.70;99.90;;;;;;4930793;29;20201;-62
2022/05/11 05:16:48;;;;;;;12.70;11.33;;;17.80;99.90;;;;;;4928298;29;20246;-62
2022/05/11 05:19:14;;;;;;;13.60;11.83;;;17.90;99.90;;;;;;4930872;29;20192;-62
2022/05/11 05:21:39;;;;;;;12.03;10.87;;;17.90;99.90;;;;;;4928538;29;20198;-63
2022/05/11 05:24:06;;;;;;;10.90;10.00;;;17.90;99.90;;;;;;4930223;29;20209;-63
2022/05/11 05:26:31;;;;;;;12.47;11.37;;;17.90;99.90;;;;;;4930355;29;20306;-64
2022/05/11 05:31:41;;;;;;;18.00;11.90;;;17.80;99.90;;;;;;4919908;29;20317;-62
2022/05/11 05:34:07;;;;;;;12.07;10.93;;;17.90;99.90;;;;;;4930197;29;20198;-63
2022/05/11 05:36:37;;;;;;;12.07;10.87;;;18.00;99.90;;;;;;4929510;29;20646;-62
2022/05/11 05:39:05;;;;;;;12.37;10.40;;;18.00;99.90;;;;;;4929987;29;20289;-63
2022/05/11 05:41:31;;;;;;;11.57;10.53;;;18.10;99.90;;;;;;4930014;29;20285;-62
2022/05/11 05:43:56;;;;;;;10.97;9.77;;;18.10;99.90;;;;;;4928105;29;20230;-62
2022/05/11 05:46:24;;;;;;;11.73;10.30;;;18.10;99.90;;;;;;4931037;29;20246;-63
2022/05/11 05:48:49;;;;;;;12.07;11.03;;;18.20;99.90;;;;;;4928938;29;20313;-63
2022/05/11 05:51:17;;;;;;;13.53;11.00;;;18.30;99.90;;;;;;4928657;29;20254;-63
2022/05/11 05:53:45;;;;;;;11.93;10.73;;;18.50;99.90;;;;;;4927940;29;20349;-64
2022/05/11 05:56:11;;;;;;;10.43;9.53;;;18.50;99.90;;;;;;4929668;29;20210;-64
2022/05/11 05:58:37;;;;;;;10.50;9.13;;;18.50;99.90;;;;;;4928160;29;20293;-64
2022/05/11 06:01:04;;;;;;;11.63;10.50;;;18.50;99.90;;;;;;4929397;29;20369;-63
2022/05/11 06:03:32;;;;;;;9.93;9.03;;;18.50;99.90;;;;;;4927711;29;20763;-64
2022/05/11 06:05:57;;;;;;;11.47;10.27;;;18.60;99.90;;;;;;4928826;29;20193;-65
2022/05/11 06:08:23;;;;;;;11.43;10.33;;;18.60;99.90;;;;;;4927485;29;20280;-64
2022/05/11 06:10:49;;;;;;;10.60;9.50;;;18.60;99.90;;;;;;4929450;29;20202;-62
2022/05/11 06:13:17;;;;;;;10.63;9.60;;;18.70;99.90;;;;;;4927467;29;20251;-62
2022/05/11 06:15:43;;;;;;;11.33;10.33;;;18.90;99.90;;;;;;4929358;29;20246;-63
2022/05/11 06:18:18;;;;;;;11.57;10.47;;;19.10;99.90;;;;;;4927535;29;20210;-61
2022/05/11 06:20:44;;;;;;;10.63;9.63;;;19.20;99.90;;;;;;4918003;29;20228;-62
2022/05/11 06:23:09;;;;;;;10.13;9.17;;;19.10;99.90;;;;;;4927489;29;20577;-63
2022/05/11 06:25:38;;;;;;;10.00;9.10;;;19.00;99.90;;;;;;4928596;29;20226;-62
2022/05/11 06:28:06;;;;;;;12.20;9.50;;;18.90;99.90;;;;;;4926991;29;20215;-63
2022/05/11 06:30:32;;;;;;;12.53;10.20;;;18.90;99.90;;;;;;4929105;29;20288;-64
2022/05/11 06:32:58;;;;;;;10.20;9.17;;;18.90;99.90;;;;;;4919470;29;20740;-62
2022/05/11 06:35:23;;;;;;;15.63;11.07;;;18.90;99.90;;;;;;4928996;29;20236;-62
2022/05/11 06:37:51;;;;;;;11.20;10.10;;;19.00;99.90;;;;;;4918164;29;20209;-62
2022/05/11 06:40:18;;;;;;;12.87;11.60;;;18.90;99.90;;;;;;4928519;29;20194;-65
2022/05/11 06:42:43;;;;;;;12.83;11.60;;;19.00;99.90;;;;;;4918304;29;20215;-62
2022/05/11 06:45:10;;;;;;;15.73;11.93;;;19.10;99.90;;;;;;4928869;29;20213;-63
2022/05/11 06:47:36;;;;;;;14.77;10.57;;;19.10;99.90;;;;;;4926787;29;20693;-61
2022/05/11 06:50:02;;;;;;;12.53;11.33;;;19.10;99.90;;;;;;4928606;29;20234;-61
2022/05/11 06:52:27;;;;;;;12.13;10.53;;;19.10;99.90;;;;;;4926968;29;20250;-62
2022/05/11 07:00:32;;;;;;;12.30;11.07;;;19.30;99.90;;;;;;4924370;29;20273;-63
2022/05/11 07:02:59;;;;;;;11.93;10.77;;;19.30;99.90;;;;;;4925083;29;20219;-63
2022/05/11 07:05:24;;;;;;;11.43;10.53;;;19.40;99.90;;;;;;4927067;29;20642;-62
2022/05/11 07:07:53;;;;;;;12.43;9.80;;;19.60;99.90;;;;;;4926607;29;20302;-62
2022/05/11 07:10:19;;;;;;;10.60;9.70;;;19.70;99.90;;;;;;4928677;29;20609;-62
2022/05/11 07:12:48;;;;;;;10.33;9.23;;;19.70;99.90;;;;;;4926136;29;20259;-62
2022/05/11 07:15:20;;;;;;;11.93;9.73;;;19.70;99.90;;;;;;4928085;29;20262;-62
2022/05/11 07:17:55;;;;;;;10.83;9.83;;;19.60;99.90;;;;;;4917123;29;20206;-62
2022/05/11 07:20:28;;;;;;;13.50;9.70;;;19.60;99.90;;;;;;4913949;29;20186;-62
2022/05/11 07:22:54;;;;;;;10.00;9.10;;;19.70;99.90;;;;;;4917468;29;20211;-62
2022/05/11 07:25:22;;;;;;;12.70;8.77;;;19.60;99.90;;;;;;4927812;29;20439;-62
2022/05/11 07:27:49;;;;;;;9.23;8.30;;;19.80;99.90;;;;;;4919104;29;20234;-61
2022/05/11 07:30:21;;;;;;;10.37;8.27;;;20.00;99.90;;;;;;4927728;29;20598;-61
2022/05/11 07:32:47;;;;;;;12.90;8.10;;;20.20;99.90;;;;;;4916519;29;20195;-61
2022/05/11 07:35:12;;;;;;;8.60;7.83;;;20.30;99.90;;;;;;4927538;29;20586;-61
2022/05/11 07:37:38;;;;;;;9.27;8.27;;;20.40;99.90;;;;;;4926067;29;20202;-61
2022/05/11 07:40:05;;;;;;;8.60;8.00;;;20.30;99.90;;;;;;4927900;29;20748;-61
2022/05/11 07:42:31;;;;;;;7.68;6.97;;;20.40;99.90;;;;;;4926597;29;20203;-62
2022/05/11 07:44:57;;;;;;;9.43;7.65;;;20.50;99.90;;;;;;4928131;29;20678;-62
2022/05/11 07:47:23;;;;;;;14.05;8.52;;;20.50;99.90;;;;;;4925558;29;20290;-61
2022/05/11 07:49:49;;;;;;;8.57;7.72;;;20.50;99.90;;;;;;4928096;29;20195;-62
2022/05/11 07:52:15;;;;;;;8.40;7.70;;;20.40;99.90;;;;;;4925690;29;20550;-62
2022/05/11 07:54:41;;;;;;;9.27;8.43;;;20.40;99.90;;;;;;4927868;29;20198;-61
2022/05/11 07:59:52;;;;;;;7.57;6.67;;;20.50;99.90;;;;;;4925780;29;20689;-61
2022/05/11 08:02:18;;;;;;;8.52;6.55;;;20.70;99.90;;;;;;4927628;29;20203;-61
2022/05/11 08:04:44;;;;;;;9.23;6.82;;;20.90;99.90;;;;;;4925577;29;20221;-62
2022/05/11 08:07:13;;;;;;;9.40;7.00;;;20.90;99.90;;;;;;4927599;29;20190;-62
2022/05/11 08:09:39;;;;;;;8.07;6.20;;;21.00;99.90;;;;;;4925362;29;20280;-62
2022/05/11 08:12:04;;;;;;;9.00;7.07;;;21.20;99.90;;;;;;4927690;29;20194;-61
2022/05/11 08:14:30;;;;;;;12.37;6.73;;;21.30;99.90;;;;;;4925873;29;20207;-62
2022/05/11 08:16:56;;;;;;;7.35;6.63;;;21.30;99.90;;;;;;4926978;29;20329;-62
2022/05/11 08:19:24;;;;;;;7.43;6.80;;;21.40;99.90;;;;;;4926097;29;20282;-62
2022/05/11 08:21:51;;;;;;;7.18;6.47;;;21.40;99.90;;;;;;4924535;29;20662;-62
2022/05/11 08:24:18;;;;;;;6.13;5.53;;;21.40;99.90;;;;;;4914901;29;20215;-62
2022/05/11 08:26:46;;;;;;;6.63;5.97;;;21.70;99.90;;;;;;4926761;29;20218;-63
2022/05/11 08:33:19;;;;;;;7.60;6.78;;;21.30;99.70;;;;;;4929030;29;20202;-63
2022/05/11 08:34:42;;;;;;;6.67;5.60;;;21.40;99.90;;;;;;4925425;29;20732;-63
2022/05/11 08:37:08;;;;;;;7.10;6.05;;;21.50;99.90;;;;;;4931471;29;20238;-63
2022/05/11 08:39:33;;;;;;;10.07;6.30;;;21.80;99.90;;;;;;4920897;29;20264;-62
2022/05/11 08:42:00;;;;;;;7.25;6.55;;;22.00;99.40;;;;;;4931074;29;20454;-62
2022/05/11 08:44:32;;;;;;;6.20;5.63;;;22.10;99.20;;;;;;4929242;29;20215;-62
2022/05/11 08:47:18;;;;;;;7.40;6.55;;;22.30;99.30;;;;;;4931323;29;20203;-62
2022/05/11 08:49:59;;;;;;;6.57;5.95;;;22.70;99.10;;;;;;4925658;29;20252;-62
2022/05/11 08:52:47;;;;;;;7.97;6.70;;;23.10;98.30;;;;;;4924409;29;20788;-61
2022/05/11 08:55:40;;;;;;;6.78;6.07;;;23.00;97.60;;;;;;4929208;29;20211;-66
2022/05/11 08:58:12;;;;;;;9.00;7.05;;;23.00;97.60;;;;;;4930241;29;20198;-61
2022/05/11 09:00:41;;;;;;;6.57;6.05;;;23.20;96.60;;;;;;4928764;29;20225;-62
2022/05/11 09:03:19;;;;;;;6.88;6.25;;;23.20;97.50;;;;;;4929920;29;20250;-62
2022/05/11 09:05:45;;;;;;;9.30;6.15;;;23.30;96.70;;;;;;4930303;29;20245;-61
2022/05/11 09:08:11;;;;;;;6.55;5.90;;;23.40;96.50;;;;;;4930351;29;20214;-61
2022/05/11 09:10:39;;;;;;;11.32;7.28;;;23.60;96.60;;;;;;4927554;29;20616;-62
2022/05/11 09:13:13;;;;;;;8.18;6.50;;;23.70;95.80;;;;;;4930187;29;20208;-62
2022/05/11 09:15:55;;;;;;;8.93;6.82;;;23.60;95.60;;;;;;4928646;29;20262;-62
2022/05/11 09:18:32;;;;;;;10.85;7.25;;;23.60;95.90;;;;;;4925434;29;20348;-62
2022/05/11 09:21:00;;;;;;;9.52;7.78;;;23.70;95.50;;;;;;4930796;29;20257;-62
2022/05/11 09:23:39;;;;;;;10.75;7.28;;;23.40;95.30;;;;;;4928389;29;20221;-62
2022/05/11 09:26:11;;;;;;;7.68;6.93;;;23.30;95.90;;;;;;4930546;29;20209;-61
2022/05/11 09:28:39;;;;;;;9.60;7.82;;;23.60;95.60;;;;;;4912406;29;20198;-61
2022/05/11 09:31:09;;;;;;;9.30;7.78;;;24.00;95.10;;;;;;4930011;29;20417;-62
2022/05/11 09:33:40;;;;;;;8.60;7.80;;;24.00;94.60;;;;;;4928245;29;20290;-62
2022/05/11 09:36:08;;;;;;;7.75;7.20;;;24.00;93.80;;;;;;4929929;29;20229;-62
2022/05/11 09:38:40;;;;;;;8.57;7.80;;;24.10;93.40;;;;;;4928352;29;20715;-62
2022/05/11 09:41:21;;;;;;;8.45;7.65;;;24.10;93.90;;;;;;4929726;29;20201;-62
2022/05/11 09:43:50;;;;;;;7.60;6.90;;;24.20;94.10;;;;;;4913168;29;20222;-61
2022/05/11 09:46:42;;;;;;;9.85;7.88;;;24.40;93.20;;;;;;4929923;29;20973;-62
2022/05/11 09:49:17;;;;;;;9.15;8.30;;;24.50;92.80;;;;;;4923863;29;20217;-71
2022/05/11 09:51:54;;;;;;;9.20;8.00;;;24.60;92.80;;;;;;4926445;29;20208;-71
2022/05/11 09:54:48;;;;;;;8.35;7.65;;;24.70;92.00;;;;;;4923627;29;20223;-71
2022/05/11 09:57:20;;;;;;;9.23;8.43;;;24.60;92.90;;;;;;4928270;29;20261;-70
2022/05/11 09:59:51;;;;;;;7.63;6.90;;;24.80;92.20;;;;;;4923029;29;20293;-71
2022/05/11 10:02:32;;;;;;;8.25;7.50;;;24.80;92.10;;;;;;4928569;29;20213;-72
2022/05/11 10:05:14;;;;;;;8.98;7.35;;;24.70;92.30;;;;;;4916735;29;20245;-77
2022/05/11 10:07:48;;;;;;;7.80;7.10;;;24.70;92.10;;;;;;4924415;29;20194;-76
2022/05/11 10:10:35;;;;;;;7.65;7.05;;;24.60;91.80;;;;;;4921316;29;20297;-76
2022/05/11 10:13:23;;;;;;;7.47;6.80;;;24.30;92.00;;;;;;4921261;29;20201;-72
2022/05/11 10:21:56;;;;;;;10.57;7.93;;;24.60;91.90;;;;;;4925611;29;20217;-71
2022/05/11 10:24:31;;;;;;;7.55;6.90;;;24.90;91.30;;;;;;4920412;29;20228;-73
2022/05/11 10:27:07;;;;;;;10.68;7.72;;;25.00;91.20;;;;;;4928999;29;20701;-72
2022/05/11 10:29:47;;;;;;;8.05;7.38;;;25.10;91.10;;;;;;4918002;29;20210;-71
2022/05/11 10:32:18;;;;;;;7.53;6.88;;;25.20;91.30;;;;;;4929222;29;20184;-71
2022/05/11 10:35:17;;;;;;;7.43;6.80;;;25.30;90.80;;;;;;4926989;29;20678;-71
2022/05/11 10:37:42;;;;;;;7.15;6.55;;;25.60;90.50;;;;;;4928594;29;20202;-76
2022/05/11 10:40:28;;;;;;;97.03;69.50;;;25.70;88.90;;;;;;4924913;29;20694;-82
2022/05/11 10:42:57;;;;;;;1285.50;999.90;;;25.90;91.00;;;;;;4928391;29;20425;-72
2022/05/11 10:45:30;;;;;;;1088.07;986.23;;;25.00;97.70;;;;;;4924733;29;20199;-76
2022/05/11 10:48:06;;;;;;;1077.60;978.57;;;24.40;94.40;;;;;;4925673;29;20262;-74
2022/05/11 10:50:58;;;;;;;1044.07;947.93;;;24.00;97.20;;;;;;4925324;29;20207;-72
2022/05/11 10:53:36;;;;;;;17.23;10.75;;;23.80;96.80;;;;;;4919545;29;20209;-73
2022/05/11 10:56:25;;;;;;;991.23;906.03;;;24.00;95.30;;;;;;4925274;29;20198;-74
2022/05/11 10:59:25;;;;;;;246.82;217.52;;;24.50;93.60;;;;;;4924626;29;20277;-74
2022/05/11 11:02:28;;;;;;;25.50;21.50;;;24.90;90.90;;;;;;4926698;29;20243;-72
2022/05/11 11:05:31;;;;;;;18.10;9.73;;;25.50;88.00;;;;;;4925835;29;20814;-73
2022/05/11 11:08:22;;;;;;;21.60;10.10;;;26.30;86.40;;;;;;4927897;29;20198;-74
2022/05/11 11:11:11;;;;;;;7.53;6.82;;;26.50;84.00;;;;;;4926615;29;20207;-75
2022/05/11 11:14:00;;;;;;;4.70;4.30;;;27.20;80.50;;;;;;4927941;29;20179;-75
2022/05/11 11:16:32;;;;;;;5.45;4.95;;;27.10;77.50;;;;;;4908798;29;20604;-75
2022/05/11 11:18:58;;;;;;;9.27;6.45;;;26.90;78.70;;;;;;4909606;29;20719;-75
2022/05/11 11:21:24;;;;;;;5.55;5.00;;;27.10;77.10;;;;;;4927436;29;20208;-76
2022/05/11 11:24:10;;;;;;;9.90;6.30;;;27.20;77.40;;;;;;4926310;29;20301;-62
2022/05/11 11:26:47;;;;;;;6.88;6.22;;;27.20;75.60;;;;;;4928385;29;20301;-61
2022/05/11 11:29:14;;;;;;;5.72;5.22;;;27.00;75.10;;;;;;4926369;29;20560;-61
2022/05/11 11:32:00;;;;;;;4.65;4.22;;;27.50;73.80;;;;;;4927811;29;20179;-60
2022/05/11 11:34:31;;;;;;;8.98;4.72;;;28.30;71.60;;;;;;4925947;29;20213;-61
2022/05/11 11:37:16;;;;;;;6.55;5.93;;;28.70;70.20;;;;;;4927982;29;20187;-61
2022/05/11 11:39:54;;;;;;;5.55;4.95;;;28.00;68.30;;;;;;4926010;29;20554;-61
2022/05/11 11:42:30;;;;;;;8.45;7.65;;;27.80;69.00;;;;;;4927158;29;20214;-62
2022/05/11 11:44:56;;;;;;;5.65;3.80;;;28.80;67.10;;;;;;4925612;29;20223;-62
2022/05/11 11:47:27;;;;;;;4.30;4.03;;;29.60;65.10;;;;;;4927410;29;20194;-62
2022/05/11 11:49:57;;;;;;;4.38;3.97;;;29.60;63.50;;;;;;4925681;29;20769;-62
2022/05/11 11:52:43;;;;;;;5.25;4.38;;;29.60;62.80;;;;;;4927089;29;20206;-61
2022/05/11 11:55:27;;;;;;;4.75;4.05;;;29.70;62.50;;;;;;4918218;29;20282;-62
2022/05/11 11:57:56;;;;;;;6.93;4.00;;;29.90;60.70;;;;;;4917588;29;20650;-62
2022/05/11 12:01:02;;;;;;;7.60;3.85;;;29.60;59.10;;;;;;4925584;29;20207;-62
2022/05/11 12:03:33;;;;;;;4.10;3.80;;;28.70;60.50;;;;;;4906735;29;20227;-62
2022/05/11 12:15:01;;;;;;;4.45;3.72;;;28.10;61.00;;;;;;4924917;29;20229;-64
2022/05/11 12:17:08;;;;;;;5.72;3.80;;;28.70;59.30;;;;;;4919528;29;20333;-74
2022/05/11 12:19:36;;;;;;;4.20;3.90;;;28.90;59.30;;;;;;4925363;29;20211;-65
2022/05/11 12:22:13;;;;;;;6.97;6.28;;;29.60;58.20;;;;;;4927433;29;20191;-65
2022/05/11 12:24:44;;;;;;;11.20;6.95;;;30.30;57.60;;;;;;4924284;29;20226;-63
2022/05/11 12:27:26;;;;;;;5.72;4.25;;;30.20;56.90;;;;;;4926346;29;20251;-63
2022/05/11 12:29:59;;;;;;;4.45;4.05;;;29.80;57.10;;;;;;4925306;29;20262;-63
2022/05/11 12:32:36;;;;;;;7.70;5.18;;;29.80;56.10;;;;;;4927345;29;20246;-64
2022/05/11 12:35:22;;;;;;;4.57;3.83;;;29.40;56.50;;;;;;4925014;29;20286;-69
2022/05/11 12:38:08;;;;;;;4.78;3.80;;;29.00;56.80;;;;;;4924689;29;20199;-59
2022/05/11 12:40:54;;;;;;;45.80;40.35;;;28.50;58.10;;;;;;4926533;29;20238;-59
2022/05/11 12:43:31;;;;;;;45.83;41.17;;;28.10;58.10;;;;;;4920193;29;20210;-59
2022/05/11 12:45:59;;;;;;;6.18;4.55;;;28.20;58.40;;;;;;4924731;29;20203;-59
2022/05/11 12:48:35;;;;;;;4.53;3.65;;;28.80;56.70;;;;;;4921456;29;20250;-60
2022/05/11 12:51:06;;;;;;;4.50;4.20;;;29.60;55.80;;;;;;4925752;29;20682;-60
2022/05/11 12:53:34;;;;;;;5.55;3.90;;;29.40;55.90;;;;;;4924609;29;20282;-60
2022/05/11 12:56:11;;;;;;;4.13;3.83;;;29.10;55.90;;;;;;4924964;29;20199;-60
2022/05/11 12:58:50;;;;;;;8.30;4.32;;;29.40;55.70;;;;;;4926689;29;20661;-62
2022/05/11 13:01:18;;;;;;;5.65;3.75;;;29.00;55.60;;;;;;4920256;29;20195;-59
2022/05/11 13:03:45;;;;;;;7.38;5.13;;;29.00;56.40;;;;;;4925874;29;20222;-59
2022/05/11 13:06:25;;;;;;;5.80;4.10;;;28.80;56.20;;;;;;4927047;29;20230;-59
2022/05/11 13:08:54;;;;;;;5.13;4.75;;;28.70;56.50;;;;;;4924594;29;20179;-60
2022/05/11 13:11:23;;;;;;;6.45;4.28;;;29.20;56.00;;;;;;4924667;29;20229;-60
2022/05/11 13:13:52;;;;;;;6.85;3.28;;;29.60;55.50;;;;;;4924886;29;20195;-61
2022/05/11 13:16:34;;;;;;;6.47;4.72;;;29.80;54.40;;;;;;4930794;29;20183;-61
2022/05/11 13:19:24;;;;;;;4.00;3.67;;;29.20;55.00;;;;;;4927509;29;20238;-61
2022/05/11 13:21:51;;;;;;;4.75;4.03;;;28.80;56.10;;;;;;4922073;29;20721;-61
2022/05/11 13:24:41;;;;;;;7.47;5.90;;;28.80;56.40;;;;;;4927274;29;20217;-61
2022/05/11 13:27:39;;;;;;;5.28;4.75;;;28.50;57.20;;;;;;4928880;29;20206;-61
2022/05/11 13:30:16;;;;;;;8.50;5.63;;;28.80;56.00;;;;;;4928314;29;20195;-62
2022/05/11 13:32:51;;;;;;;8.75;5.32;;;28.70;56.40;;;;;;4927679;29;20664;-62
2022/05/11 13:35:30;;;;;;;6.88;5.05;;;29.00;55.80;;;;;;4927094;29;20547;-63
2022/05/11 13:38:04;;;;;;;5.45;4.93;;;28.40;54.70;;;;;;4930008;29;20187;-64